Impacts TAF Board INFO
FOR SITUATIONAL AWARENESS. NOT TO BE USED FOR FLIGHT PLANNING PURPOSES.
IDs:

KORD - Chicago/O'Hare Intl, IL, US

Issued at 0300 UTC 25 Jun 2017
Updated at 0336 UTC 25 Jun 2017
Potential Impact None Slight Moderate High
Time0251Z 25/04Z 25/05Z 25/06Z 25/07Z 25/08Z 25/09Z 25/10Z 25/11Z 25/12Z 25/13Z 25/14Z 25/15Z 25/16Z>>
Type OBS PRVL PRVL PRVL PRVL PRVL PRVL PRVL PRVL PRVL PRVL PRVL PRVL PRVL
VIS 10 >6 >6 >6 >6 >6 >6 >6 >6 >6 >6 >6 >6 >6
CIG -- 70 -- -- -- -- -- -- -- -- -- -- 50 50
Cover SCT BKN FEW FEW FEW FEW FEW FEW FEW FEW FEW FEW BKN BKN
FltCat VFR VFR VFR VFR VFR VFR VFR VFR VFR VFR VFR VFR VFR VFR
WX -- VCSH -- -- -- -- -- -- -- -- -- -- -- --
WDir 320 320 270 270 270 270 270 270 270 270 270 270 290 290
WSpd 7 10 6 6 6 6 6 6 6 6 6 6 14 14
WGst -- -- -- -- -- -- -- -- -- -- -- -- 21 21

Raw TAF
KORD 250300Z 2503/2606 32010KT P6SM VCSH BKN070
  FM250500 27006KT P6SM FEW070
  FM251500 29014G21KT P6SM SCT035 BKN050
  FM260100 27010KT P6SM SCT050


Raw METAR
KORD 250251Z 32007KT 10SM SCT080 SCT150 18/07 A3005 RMK AO2 PK WND 32026/0156 SLP173 T01830072 53015
KORD 250151Z 30007KT 10SM SCT075 BKN090 20/06 A3003 RMK AO2 SLP167 T02000061
KORD 250051Z 30014KT 10SM FEW070 21/04 A3002 RMK AO2 SLP163 T02110044

METAR Board
Radar Display
Forecast Discussion

FOR SITUATIONAL AWARENESS. NOT TO BE USED FOR FLIGHT PLANNING PURPOSES.

Page loaded:  03:36 UTC  |   08:36 PM Pacific  |   09:36 PM Mountain  |   10:36 PM Central  |   11:36 PM Eastern

 

ADVISORIES

FORECASTS

FORECASTS

OBSERVATIONS

USER TOOLS

ABOUT US